Time;durP1;ratioP1;P1;durP2;ratioP2;P2;SDS_P1;SDS_P2;PMS_P1;PMS_P2;Temp;Humidity;BMP_temperature;BMP_pressure;BME280_temperature;BME280_humidity;BME280_pressure;Samples;Min_cycle;Max_cycle;Signal;HPM_P1;HPM_P2
2021/09/24 00:02:12;;;;;;;1.83;1.73;;;14.30;99.90;;;;;;5004927;28;20260;-86
2021/09/24 00:04:40;;;;;;;1.92;1.75;;;14.30;99.90;;;;;;4987865;28;20285;-86
2021/09/24 00:07:08;;;;;;;1.60;1.50;;;14.20;99.90;;;;;;4987429;28;20269;-85
2021/09/24 00:09:35;;;;;;;2.08;1.55;;;14.20;99.90;;;;;;4987889;28;20202;-85
2021/09/24 00:12:03;;;;;;;2.45;1.70;;;14.20;99.90;;;;;;4987178;28;20264;-86
2021/09/24 00:14:30;;;;;;;1.20;1.20;;;14.20;99.90;;;;;;4990595;28;20296;-85
2021/09/24 00:16:58;;;;;;;2.78;2.10;;;14.20;99.90;;;;;;4999775;28;20208;-85
2021/09/24 00:19:28;;;;;;;8.32;2.25;;;14.20;99.90;;;;;;4988522;28;20220;-88
2021/09/24 00:21:55;;;;;;;1.58;1.48;;;14.20;99.90;;;;;;5004205;28;20269;-86
2021/09/24 00:24:23;;;;;;;1.42;1.42;;;14.20;99.90;;;;;;4988254;28;20197;-83
2021/09/24 00:26:50;;;;;;;2.20;1.45;;;14.20;99.90;;;;;;5005013;28;20202;-83
2021/09/24 00:29:17;;;;;;;7.43;1.95;;;14.20;99.90;;;;;;4987091;28;20206;-83
2021/09/24 00:31:44;;;;;;;1.00;1.00;;;14.20;99.90;;;;;;5003096;28;20208;-87
2021/09/24 00:34:12;;;;;;;1.35;1.25;;;14.20;99.90;;;;;;5003482;28;20403;-87
2021/09/24 00:36:39;;;;;;;1.40;1.30;;;14.20;99.90;;;;;;4988157;28;20229;-88
2021/09/24 00:39:06;;;;;;;1.60;1.50;;;14.20;99.90;;;;;;4988385;28;20541;-84
2021/09/24 00:41:33;;;;;;;4.20;1.60;;;14.20;99.90;;;;;;4988245;28;20197;-83
2021/09/24 00:44:03;;;;;;;1.60;1.50;;;14.20;99.90;;;;;;5004417;28;20269;-85
2021/09/24 00:46:30;;;;;;;1.60;1.50;;;14.20;99.90;;;;;;5003776;28;20201;-86
2021/09/24 00:49:14;;;;;;;2.40;2.17;;;14.20;99.90;;;;;;5003999;28;20209;-86
2021/09/24 00:51:41;;;;;;;1.60;1.50;;;14.20;99.90;;;;;;4986768;28;20224;-85
2021/09/24 00:54:09;;;;;;;3.50;1.88;;;14.10;99.90;;;;;;4987375;28;20210;-85
2021/09/24 00:56:37;;;;;;;4.03;2.25;;;14.10;99.90;;;;;;5004640;28;20293;-88
2021/09/24 00:59:05;;;;;;;1.52;1.42;;;14.00;99.90;;;;;;4993381;28;20221;-88
2021/09/24 01:01:32;;;;;;;1.40;1.30;;;14.00;99.90;;;;;;4988223;28;20205;-87
2021/09/24 01:04:00;;;;;;;1.98;1.83;;;14.10;99.90;;;;;;4987262;28;20502;-86
2021/09/24 01:06:27;;;;;;;1.63;1.52;;;14.20;99.90;;;;;;5004927;28;20398;-87
2021/09/24 01:08:55;;;;;;;2.58;1.65;;;14.30;99.90;;;;;;4986796;28;20519;-86
2021/09/24 01:11:22;;;;;;;3.95;1.95;;;14.30;99.90;;;;;;5004865;28;20226;-85
2021/09/24 01:13:50;;;;;;;2.22;2.03;;;14.20;99.90;;;;;;4986994;28;20205;-83
2021/09/24 01:16:17;;;;;;;2.85;1.98;;;14.10;99.90;;;;;;4987994;28;20288;-86
2021/09/24 01:18:44;;;;;;;2.63;2.42;;;14.10;99.90;;;;;;5003843;28;20491;-84
2021/09/24 01:21:12;;;;;;;1.65;1.55;;;14.00;99.90;;;;;;5005048;28;20202;-87
2021/09/24 01:23:39;;;;;;;2.00;1.70;;;14.00;99.90;;;;;;4986392;28;20201;-86
2021/09/24 01:26:06;;;;;;;2.83;1.80;;;13.90;99.90;;;;;;5003110;28;20511;-83
2021/09/24 01:28:34;;;;;;;4.60;1.65;;;13.90;99.90;;;;;;5003373;28;20228;-87
2021/09/24 01:31:02;;;;;;;2.45;1.70;;;13.90;99.90;;;;;;4986385;28;20244;-86
2021/09/24 01:33:29;;;;;;;1.90;1.70;;;13.80;99.90;;;;;;4987174;28;20375;-83
2021/09/24 01:35:56;;;;;;;2.15;2.05;;;13.80;99.90;;;;;;5002833;28;20225;-87
2021/09/24 01:38:24;;;;;;;2.45;2.28;;;13.80;99.90;;;;;;5004492;28;20531;-85
2021/09/24 01:40:51;;;;;;;2.92;1.73;;;13.70;99.90;;;;;;4990227;28;20202;-84
2021/09/24 01:43:18;;;;;;;4.53;1.95;;;13.80;99.90;;;;;;5006141;28;20272;-85
2021/09/24 01:45:45;;;;;;;4.38;3.03;;;13.70;99.90;;;;;;4990350;28;20260;-84
2021/09/24 01:48:13;;;;;;;3.97;3.67;;;13.70;99.90;;;;;;5006758;28;20197;-86
2021/09/24 01:50:40;;;;;;;4.90;1.80;;;13.70;99.90;;;;;;5008209;28;20209;-85
2021/09/24 01:53:08;;;;;;;6.25;2.78;;;13.80;99.90;;;;;;5005152;28;20652;-86
2021/09/24 01:55:35;;;;;;;4.93;2.00;;;13.90;99.90;;;;;;5008482;28;20221;-85
2021/09/24 01:58:03;;;;;;;1.60;1.50;;;13.90;99.90;;;;;;4990411;28;20449;-87
2021/09/24 02:00:30;;;;;;;6.93;2.35;;;14.00;99.90;;;;;;4999267;28;20197;-87
2021/09/24 02:02:58;;;;;;;4.40;2.20;;;13.90;99.90;;;;;;5007734;28;20201;-85
2021/09/24 02:05:26;;;;;;;1.95;1.67;;;13.90;99.90;;;;;;4989375;28;20229;-85
2021/09/24 02:07:53;;;;;;;3.90;1.83;;;13.80;99.90;;;;;;4989742;28;20233;-88
2021/09/24 02:10:21;;;;;;;2.25;1.85;;;13.80;99.90;;;;;;5006627;28;20203;-87
2021/09/24 02:12:48;;;;;;;2.60;1.63;;;13.90;99.90;;;;;;5007814;28;20220;-83
2021/09/24 02:15:15;;;;;;;2.30;2.10;;;13.90;99.90;;;;;;5006847;28;20268;-87
2021/09/24 02:17:43;;;;;;;2.60;1.70;;;14.00;99.90;;;;;;4991891;28;20507;-88
2021/09/24 02:20:11;;;;;;;1.40;1.30;;;14.10;99.90;;;;;;4999854;28;20268;-87
2021/09/24 02:22:38;;;;;;;1.75;1.60;;;14.10;99.90;;;;;;4998668;28;20392;-84
2021/09/24 02:25:06;;;;;;;1.60;1.50;;;14.10;99.90;;;;;;4995875;28;20220;-83
2021/09/24 02:27:33;;;;;;;2.10;1.40;;;14.20;99.90;;;;;;5004146;28;20264;-85
2021/09/24 02:30:02;;;;;;;3.05;1.80;;;14.20;99.90;;;;;;4989922;28;20205;-85
2021/09/24 02:32:29;;;;;;;7.18;2.45;;;14.20;99.90;;;;;;5003932;28;20208;-89
2021/09/24 02:34:57;;;;;;;1.40;1.30;;;14.20;99.90;;;;;;5007378;28;20551;-85
2021/09/24 02:37:24;;;;;;;4.70;1.88;;;14.20;99.90;;;;;;5006032;28;20262;-83
2021/09/24 02:39:52;;;;;;;4.82;1.67;;;14.20;99.90;;;;;;5007288;28;20225;-87
2021/09/24 02:42:19;;;;;;;2.35;2.15;;;14.20;99.90;;;;;;5003595;28;20220;-83
2021/09/24 02:44:47;;;;;;;1.77;1.67;;;14.20;99.90;;;;;;4995561;28;20569;-87
2021/09/24 02:47:15;;;;;;;2.88;1.73;;;14.20;99.90;;;;;;5006377;28;20233;-86
2021/09/24 02:49:44;;;;;;;8.07;2.08;;;14.20;99.90;;;;;;5007104;28;20244;-85
2021/09/24 02:52:11;;;;;;;3.28;2.05;;;14.20;99.90;;;;;;5006364;28;20213;-87
2021/09/24 02:54:39;;;;;;;2.65;1.60;;;14.20;99.90;;;;;;5003958;28;20206;-87
2021/09/24 02:57:06;;;;;;;3.75;1.83;;;14.10;99.90;;;;;;5004550;28;20380;-87
2021/09/24 02:59:33;;;;;;;3.70;2.22;;;14.10;99.90;;;;;;4996881;28;20260;-85
2021/09/24 03:02:01;;;;;;;4.53;2.03;;;14.10;99.90;;;;;;5005414;28;20209;-84
2021/09/24 03:04:28;;;;;;;9.23;2.47;;;14.00;99.90;;;;;;5007541;28;20390;-88
2021/09/24 03:06:57;;;;;;;2.45;1.80;;;14.00;99.90;;;;;;4981930;28;20204;-86
2021/09/24 03:09:24;;;;;;;2.40;1.52;;;14.00;99.90;;;;;;5003797;28;20517;-83
2021/09/24 03:11:52;;;;;;;4.72;2.05;;;13.90;99.90;;;;;;5005638;28;20201;-88
2021/09/24 03:14:19;;;;;;;1.80;1.70;;;13.80;99.90;;;;;;4999830;28;20200;-87
2021/09/24 03:16:47;;;;;;;2.92;2.30;;;13.60;99.90;;;;;;4989757;28;20233;-87
2021/09/24 03:19:18;;;;;;;9.80;2.10;;;13.50;99.90;;;;;;5005712;28;20506;-84
2021/09/24 03:21:47;;;;;;;2.72;2.20;;;13.40;99.90;;;;;;4988485;28;20533;-84
2021/09/24 03:24:16;;;;;;;1.90;1.60;;;13.30;99.90;;;;;;4988331;28;20364;-88
2021/09/24 03:26:44;;;;;;;3.28;2.00;;;13.30;99.90;;;;;;4989127;28;20244;-90
2021/09/24 03:29:11;;;;;;;2.40;1.98;;;13.20;99.90;;;;;;5004197;28;20243;-85
2021/09/24 03:31:40;;;;;;;6.93;2.47;;;13.20;99.90;;;;;;5005627;28;20268;-89
2021/09/24 03:34:08;;;;;;;2.80;1.90;;;13.20;99.90;;;;;;5005038;28;20201;-83
2021/09/24 03:36:36;;;;;;;6.28;2.40;;;13.30;99.90;;;;;;4987882;28;20221;-82
2021/09/24 03:39:13;;;;;;;2.30;1.70;;;13.40;99.90;;;;;;5004754;28;20201;-86
2021/09/24 03:41:42;;;;;;;4.05;2.35;;;13.40;99.90;;;;;;5005820;28;20206;-84
2021/09/24 03:44:10;;;;;;;3.85;2.22;;;13.50;99.90;;;;;;4987698;28;20213;-84
2021/09/24 03:46:38;;;;;;;2.03;1.70;;;13.50;99.90;;;;;;5004826;28;20265;-85
2021/09/24 03:49:06;;;;;;;6.95;2.20;;;13.50;99.90;;;;;;5004368;28;20243;-89
2021/09/24 03:51:34;;;;;;;1.98;1.60;;;13.60;99.90;;;;;;5003297;28;20372;-87
2021/09/24 03:54:01;;;;;;;6.20;2.47;;;13.60;99.90;;;;;;5003922;28;20205;-85
2021/09/24 03:56:28;;;;;;;2.55;1.95;;;13.50;99.90;;;;;;4998669;28;20280;-86
2021/09/24 03:58:55;;;;;;;3.55;2.33;;;13.60;99.90;;;;;;5003447;28;20209;-85
2021/09/24 04:01:23;;;;;;;3.33;2.30;;;13.60;99.90;;;;;;4986236;28;20261;-86
2021/09/24 04:03:51;;;;;;;3.92;2.22;;;13.60;99.90;;;;;;5003318;28;20444;-83
2021/09/24 04:06:18;;;;;;;6.55;2.42;;;13.60;99.90;;;;;;4986976;28;20205;-86
2021/09/24 04:08:45;;;;;;;5.38;2.05;;;13.50;99.90;;;;;;5005408;28;20264;-83
2021/09/24 04:11:13;;;;;;;3.28;1.90;;;13.50;99.90;;;;;;4985534;28;20471;-83
2021/09/24 04:13:40;;;;;;;5.70;2.45;;;13.50;99.90;;;;;;4997588;28;20209;-85
2021/09/24 04:16:08;;;;;;;4.57;2.40;;;13.50;99.90;;;;;;5006559;28;20217;-87
2021/09/24 04:18:37;;;;;;;9.52;2.08;;;13.50;99.90;;;;;;5005436;28;20480;-88
2021/09/24 04:21:05;;;;;;;5.90;2.38;;;13.50;99.90;;;;;;5005463;28;20197;-89
2021/09/24 04:23:33;;;;;;;3.15;2.05;;;13.50;99.90;;;;;;5004627;28;20268;-87
2021/09/24 04:26:01;;;;;;;10.00;2.38;;;13.50;99.90;;;;;;4990389;28;20221;-84
2021/09/24 04:28:28;;;;;;;2.90;1.80;;;13.70;99.90;;;;;;5005277;28;20207;-86
2021/09/24 04:30:56;;;;;;;6.28;2.03;;;13.60;99.90;;;;;;5004313;28;20268;-84
2021/09/24 04:33:24;;;;;;;9.55;2.72;;;13.60;99.90;;;;;;5001778;28;20513;-86
2021/09/24 04:35:51;;;;;;;2.15;1.85;;;13.60;99.90;;;;;;5000983;28;20561;-88
2021/09/24 04:38:18;;;;;;;1.90;1.80;;;13.60;99.90;;;;;;4984226;28;20364;-87
2021/09/24 04:40:45;;;;;;;4.25;2.22;;;13.60;99.90;;;;;;4996219;28;20215;-87
2021/09/24 04:43:13;;;;;;;7.32;2.80;;;13.50;99.90;;;;;;4984070;28;20213;-84
2021/09/24 04:45:40;;;;;;;3.38;1.83;;;13.60;99.90;;;;;;5001762;28;20495;-87
2021/09/24 04:48:08;;;;;;;2.60;2.28;;;13.60;99.90;;;;;;4996125;28;20198;-83
2021/09/24 04:50:36;;;;;;;2.40;1.90;;;13.60;99.90;;;;;;5005271;28;20356;-88
2021/09/24 04:53:03;;;;;;;2.47;2.28;;;13.50;99.90;;;;;;4989037;28;20251;-87
2021/09/24 04:55:30;;;;;;;6.82;2.65;;;13.50;99.90;;;;;;4991204;28;20202;-86
2021/09/24 04:57:57;;;;;;;4.95;2.65;;;13.50;99.90;;;;;;4986760;28;20216;-86
2021/09/24 05:00:25;;;;;;;4.30;1.90;;;13.50;99.90;;;;;;5011704;28;20201;-85
2021/09/24 05:02:52;;;;;;;7.20;2.92;;;13.50;99.90;;;;;;4996953;28;20483;-85
2021/09/24 05:05:19;;;;;;;7.60;4.63;;;13.50;99.90;;;;;;4999574;28;20193;-85
2021/09/24 05:07:48;;;;;;;4.47;2.90;;;13.50;99.90;;;;;;4997472;28;20206;-86
2021/09/24 05:10:16;;;;;;;4.43;2.20;;;13.50;99.90;;;;;;4984586;28;20212;-86
2021/09/24 05:12:43;;;;;;;7.88;3.03;;;13.50;99.90;;;;;;5003822;28;20209;-86
2021/09/24 05:15:11;;;;;;;2.67;2.50;;;13.40;99.90;;;;;;4996645;28;20201;-84
2021/09/24 05:17:39;;;;;;;4.55;2.10;;;13.50;99.90;;;;;;4988400;28;20217;-85
2021/09/24 05:20:07;;;;;;;4.50;2.78;;;13.50;99.90;;;;;;4985817;28;20273;-86
2021/09/24 05:22:36;;;;;;;6.28;2.90;;;13.50;99.90;;;;;;4985559;28;20502;-85
2021/09/24 05:25:04;;;;;;;3.33;3.03;;;13.50;99.90;;;;;;4985280;28;20205;-83
2021/09/24 05:27:32;;;;;;;2.60;1.98;;;13.50;99.90;;;;;;5002710;28;20205;-88
2021/09/24 05:29:59;;;;;;;7.70;3.08;;;13.50;99.90;;;;;;4984556;28;20479;-86
2021/09/24 05:32:27;;;;;;;3.22;2.03;;;13.50;99.90;;;;;;4979157;28;20210;-83
2021/09/24 05:34:54;;;;;;;5.97;3.22;;;13.50;99.90;;;;;;5003510;28;20212;-84
2021/09/24 05:37:22;;;;;;;4.93;1.88;;;13.50;99.90;;;;;;5001342;28;20217;-85
2021/09/24 05:39:50;;;;;;;6.68;2.40;;;13.50;99.90;;;;;;5004753;28;20262;-88
2021/09/24 05:42:17;;;;;;;9.90;2.60;;;13.50;99.90;;;;;;5003063;28;20198;-87
2021/09/24 05:44:44;;;;;;;5.25;2.10;;;13.50;99.90;;;;;;5003269;28;20216;-85
2021/09/24 05:47:11;;;;;;;4.95;2.67;;;13.50;99.90;;;;;;5003449;28;20239;-84
2021/09/24 05:49:39;;;;;;;11.13;3.17;;;13.50;99.90;;;;;;5004124;28;20194;-86
2021/09/24 05:52:06;;;;;;;5.28;2.80;;;13.50;99.90;;;;;;5003317;28;20202;-87
2021/09/24 05:54:34;;;;;;;4.55;2.50;;;13.60;99.90;;;;;;4985138;28;20212;-86
2021/09/24 05:57:01;;;;;;;4.63;2.10;;;13.60;99.90;;;;;;4986204;28;20229;-87
2021/09/24 05:59:28;;;;;;;6.45;2.40;;;13.60;99.90;;;;;;4990223;28;20518;-87
2021/09/24 06:01:55;;;;;;;3.25;2.13;;;13.70;99.90;;;;;;4993722;28;20225;-86
2021/09/24 06:04:23;;;;;;;4.80;2.75;;;13.70;99.90;;;;;;5003047;28;20273;-85
2021/09/24 06:06:50;;;;;;;3.70;2.63;;;13.70;99.90;;;;;;4985132;28;20273;-83
2021/09/24 06:09:18;;;;;;;6.10;2.70;;;13.70;99.90;;;;;;5000943;28;20273;-87
2021/09/24 06:11:45;;;;;;;8.02;2.30;;;13.70;99.90;;;;;;4984512;28;20212;-86
2021/09/24 06:14:13;;;;;;;3.17;2.33;;;13.80;99.90;;;;;;5002459;28;20190;-87
2021/09/24 06:16:40;;;;;;;4.60;2.50;;;13.80;99.90;;;;;;4985330;28;20271;-89
2021/09/24 06:19:09;;;;;;;3.85;2.30;;;13.90;99.90;;;;;;5001594;28;20488;-87
2021/09/24 06:21:38;;;;;;;8.68;2.72;;;13.90;99.90;;;;;;5003082;28;20209;-85
2021/09/24 06:24:10;;;;;;;3.75;2.67;;;13.90;99.90;;;;;;4987975;28;20233;-85
2021/09/24 06:26:37;;;;;;;6.32;2.85;;;14.00;99.90;;;;;;4986086;28;20206;-88
2021/09/24 06:29:06;;;;;;;4.28;2.33;;;14.00;99.90;;;;;;5005688;28;20213;-86
2021/09/24 06:31:33;;;;;;;6.72;2.42;;;13.90;99.90;;;;;;5005947;28;20205;-87
2021/09/24 06:34:00;;;;;;;5.82;2.30;;;13.90;99.90;;;;;;4993251;28;20490;-85
2021/09/24 06:36:28;;;;;;;7.32;3.17;;;13.90;99.90;;;;;;5006429;28;20225;-86
2021/09/24 06:38:56;;;;;;;10.45;3.78;;;13.90;99.90;;;;;;5001677;28;20208;-86
2021/09/24 06:41:24;;;;;;;2.88;2.55;;;13.90;99.90;;;;;;4999495;28;20201;-91
2021/09/24 06:43:52;;;;;;;7.82;2.75;;;13.90;99.90;;;;;;4989966;28;20336;-86
2021/09/24 06:46:35;;;;;;;2.50;2.30;;;13.90;99.90;;;;;;5001331;28;20202;-86
2021/09/24 06:49:03;;;;;;;7.28;3.85;;;13.90;99.90;;;;;;4989527;28;20206;-86
2021/09/24 06:51:30;;;;;;;10.85;3.53;;;14.00;99.90;;;;;;5006057;28;20197;-87
2021/09/24 06:53:58;;;;;;;6.38;2.95;;;14.00;99.90;;;;;;5006143;28;20496;-88
2021/09/24 06:56:25;;;;;;;3.63;2.30;;;14.10;99.90;;;;;;5005414;28;20279;-85
2021/09/24 06:58:53;;;;;;;5.40;2.67;;;14.10;99.90;;;;;;4989562;28;20431;-86
2021/09/24 07:01:22;;;;;;;5.82;4.20;;;14.20;99.90;;;;;;5006271;28;20194;-88
2021/09/24 07:03:50;;;;;;;11.27;3.67;;;14.30;99.90;;;;;;4998657;28;20514;-87
2021/09/24 07:06:17;;;;;;;10.18;2.72;;;14.30;99.90;;;;;;4983716;28;20625;-87
2021/09/24 07:08:45;;;;;;;3.88;2.90;;;14.40;99.90;;;;;;5006363;28;20205;-87
2021/09/24 07:11:12;;;;;;;4.70;2.50;;;14.70;99.90;;;;;;4987185;28;20208;-86
2021/09/24 07:13:40;;;;;;;6.72;2.40;;;14.80;99.90;;;;;;4994667;28;20198;-89
2021/09/24 07:16:07;;;;;;;4.45;2.25;;;14.80;99.90;;;;;;4999471;28;20205;-88
2021/09/24 07:18:34;;;;;;;9.23;2.75;;;14.70;99.90;;;;;;5006244;28;20423;-83
2021/09/24 07:21:02;;;;;;;4.13;2.10;;;14.90;99.90;;;;;;4985938;28;20210;-86
2021/09/24 07:23:29;;;;;;;4.88;2.35;;;15.00;99.90;;;;;;5004127;28;20198;-87
2021/09/24 07:25:56;;;;;;;3.65;2.58;;;15.10;99.90;;;;;;5004871;28;20198;-86
2021/09/24 07:28:23;;;;;;;4.90;3.15;;;15.10;99.90;;;;;;4988867;28;20305;-86
2021/09/24 07:30:51;;;;;;;6.68;2.25;;;15.00;99.90;;;;;;5006303;28;20212;-87
2021/09/24 07:33:18;;;;;;;6.72;2.53;;;15.00;99.90;;;;;;5005063;28;20224;-87
2021/09/24 07:35:46;;;;;;;4.97;2.55;;;15.00;99.90;;;;;;5003771;28;20273;-86
2021/09/24 07:38:13;;;;;;;7.22;3.03;;;15.00;99.90;;;;;;4987508;28;20243;-85
2021/09/24 07:40:40;;;;;;;8.65;3.15;;;15.10;99.90;;;;;;5003391;28;20202;-87
2021/09/24 07:43:07;;;;;;;2.83;2.03;;;15.20;99.90;;;;;;4984369;28;20207;-87
2021/09/24 07:45:35;;;;;;;3.78;2.78;;;15.30;99.90;;;;;;4984647;28;20210;-86
2021/09/24 07:48:05;;;;;;;7.20;3.22;;;15.40;99.90;;;;;;4988472;28;20269;-88
2021/09/24 07:50:33;;;;;;;7.90;3.55;;;15.40;99.90;;;;;;5004606;28;20302;-85
2021/09/24 07:53:00;;;;;;;6.05;2.83;;;15.50;99.90;;;;;;5005606;28;20364;-87
2021/09/24 07:55:29;;;;;;;1.98;1.88;;;15.70;99.90;;;;;;4987237;28;20240;-85
2021/09/24 07:57:56;;;;;;;2.25;2.05;;;15.90;99.90;;;;;;5005376;28;20551;-87
2021/09/24 08:00:25;;;;;;;4.32;2.40;;;15.90;99.90;;;;;;4988777;28;20198;-88
2021/09/24 08:02:54;;;;;;;3.40;2.63;;;15.80;99.90;;;;;;4991921;28;20211;-90
2021/09/24 08:05:22;;;;;;;4.40;2.63;;;15.70;99.90;;;;;;5005327;28;20414;-90
2021/09/24 08:07:49;;;;;;;4.10;3.45;;;15.80;99.90;;;;;;5002926;28;20225;-83
2021/09/24 08:10:17;;;;;;;3.08;1.92;;;15.90;99.90;;;;;;4987631;28;20210;-87
2021/09/24 08:12:44;;;;;;;7.03;4.07;;;15.90;99.90;;;;;;5004830;28;20455;-86
2021/09/24 08:15:14;;;;;;;5.67;2.73;;;16.10;99.90;;;;;;5004615;28;20412;-85
2021/09/24 08:17:41;;;;;;;5.97;2.90;;;16.20;99.90;;;;;;4988558;28;20455;-88
2021/09/24 08:20:10;;;;;;;4.47;2.50;;;16.20;99.90;;;;;;5005374;28;20541;-89
2021/09/24 08:22:40;;;;;;;5.20;2.60;;;16.10;99.90;;;;;;5001023;28;20452;-88
2021/09/24 08:25:14;;;;;;;9.02;3.55;;;16.20;99.90;;;;;;4986509;28;20429;-91
2021/09/24 08:27:42;;;;;;;5.53;2.67;;;16.40;99.90;;;;;;4988304;28;20217;-87
2021/09/24 08:30:14;;;;;;;2.70;2.50;;;16.60;99.90;;;;;;4987938;28;20511;-89
2021/09/24 08:32:42;;;;;;;6.23;2.93;;;16.50;99.90;;;;;;4983467;28;20214;-86
2021/09/24 08:35:11;;;;;;;3.40;2.50;;;16.50;99.90;;;;;;4995743;28;20728;-88
2021/09/24 08:37:39;;;;;;;11.30;4.23;;;16.80;99.90;;;;;;4986769;28;20641;-89
2021/09/24 08:40:09;;;;;;;3.57;3.27;;;16.90;99.90;;;;;;5002985;28;20460;-87
2021/09/24 08:42:41;;;;;;;7.30;4.80;;;16.90;99.90;;;;;;5002590;28;20429;-86
2021/09/24 08:45:23;;;;;;;4.23;2.87;;;16.50;99.90;;;;;;4976915;28;20462;-84
2021/09/24 08:47:59;;;;;;;6.35;2.75;;;16.10;99.90;;;;;;5004517;28;20440;-90
2021/09/24 08:50:29;;;;;;;6.03;3.30;;;15.80;99.90;;;;;;4992262;28;20210;-88
2021/09/24 08:52:57;;;;;;;6.20;3.05;;;15.80;99.90;;;;;;5003997;28;20221;-93
2021/09/24 08:55:25;;;;;;;3.27;2.23;;;15.80;99.90;;;;;;5003965;28;20497;-89
2021/09/24 08:57:53;;;;;;;6.43;2.65;;;15.90;99.90;;;;;;4983988;28;20442;-89
2021/09/24 09:00:22;;;;;;;3.33;2.50;;;16.00;99.90;;;;;;4972441;28;20211;-86
2021/09/24 09:02:57;;;;;;;3.97;3.57;;;16.20;99.90;;;;;;5004622;28;20466;-86
2021/09/24 09:05:27;;;;;;;5.50;2.75;;;16.30;99.90;;;;;;5004508;28;20502;-84
2021/09/24 09:08:15;;;;;;;5.43;2.37;;;16.20;99.90;;;;;;5004242;28;20229;-90
2021/09/24 09:10:55;;;;;;;4.97;2.83;;;16.40;99.90;;;;;;4988347;28;20407;-90
2021/09/24 09:13:29;;;;;;;5.07;2.97;;;16.50;99.90;;;;;;5003081;28;20419;-87
2021/09/24 09:16:09;;;;;;;4.30;2.50;;;16.50;99.90;;;;;;4987578;28;20788;-88
2021/09/24 09:18:40;;;;;;;5.90;3.70;;;16.50;99.90;;;;;;4983858;28;20504;-88
2021/09/24 09:21:11;;;;;;;6.13;2.90;;;16.60;99.90;;;;;;5004203;28;20449;-86
2021/09/24 09:23:43;;;;;;;6.57;2.90;;;16.60;99.90;;;;;;4987493;28;20788;-87
2021/09/24 09:26:12;;;;;;;8.20;3.17;;;16.50;99.90;;;;;;5004928;28;20443;-87
2021/09/24 09:28:49;;;;;;;6.27;3.30;;;16.50;99.90;;;;;;5003409;28;20766;-88
2021/09/24 09:31:24;;;;;;;3.83;3.07;;;16.60;99.90;;;;;;4987286;28;20438;-89
2021/09/24 09:33:59;;;;;;;4.20;3.60;;;16.80;99.90;;;;;;4989225;28;20439;-86
2021/09/24 09:36:40;;;;;;;3.93;2.40;;;16.90;99.90;;;;;;4987056;28;20419;-89
2021/09/24 09:39:14;;;;;;;4.93;3.20;;;17.10;99.90;;;;;;4987043;28;20750;-91
2021/09/24 09:41:49;;;;;;;5.60;2.70;;;17.40;99.90;;;;;;4993160;28;20433;-88
2021/09/24 09:44:31;;;;;;;3.03;2.83;;;17.40;99.90;;;;;;4987169;28;20427;-86
2021/09/24 09:47:00;;;;;;;5.50;3.23;;;17.10;99.90;;;;;;5005043;28;20399;-87
2021/09/24 09:49:28;;;;;;;7.60;4.40;;;16.70;99.90;;;;;;4991449;28;20557;-89
2021/09/24 09:52:08;;;;;;;5.50;3.53;;;16.70;99.90;;;;;;4988415;28;20425;-89
2021/09/24 09:54:38;;;;;;;4.43;3.50;;;16.80;99.90;;;;;;5010254;28;20434;-88
2021/09/24 09:57:13;;;;;;;3.67;2.87;;;16.90;99.90;;;;;;5000477;28;20672;-88
2021/09/24 09:59:40;;;;;;;6.93;2.93;;;17.20;99.90;;;;;;5005428;28;20441;-87
2021/09/24 10:02:18;;;;;;;44.47;3.57;;;17.20;99.90;;;;;;5008071;28;20422;-90
2021/09/24 10:04:51;;;;;;;6.07;2.93;;;17.30;99.90;;;;;;5008113;28;20415;-89
2021/09/24 10:07:21;;;;;;;8.37;4.67;;;17.20;99.90;;;;;;5008592;28;20415;-91
2021/09/24 10:10:06;;;;;;;9.63;3.10;;;17.10;99.90;;;;;;4994387;28;20630;-89
2021/09/24 10:12:35;;;;;;;4.33;3.27;;;17.00;99.90;;;;;;4993862;28;20431;-83
2021/09/24 10:15:04;;;;;;;6.10;2.67;;;16.90;99.90;;;;;;4996494;28;20482;-90
2021/09/24 10:17:32;;;;;;;4.17;3.17;;;16.70;99.90;;;;;;4999610;28;20926;-87
2021/09/24 10:20:00;;;;;;;8.10;3.50;;;16.70;99.90;;;;;;5005878;28;20700;-89
2021/09/24 10:22:27;;;;;;;8.60;3.10;;;16.70;99.90;;;;;;5009790;28;20438;-90
2021/09/24 10:24:56;;;;;;;7.63;3.40;;;16.90;99.90;;;;;;5015060;28;20438;-90
2021/09/24 10:27:25;;;;;;;6.33;3.33;;;17.00;99.90;;;;;;4993351;28;20825;-86
2021/09/24 10:29:54;;;;;;;4.80;2.40;;;17.10;99.90;;;;;;5008141;28;20509;-91
2021/09/24 10:32:25;;;;;;;5.97;2.57;;;17.10;99.90;;;;;;5008417;28;20443;-89
2021/09/24 10:35:01;;;;;;;15.20;3.80;;;17.20;99.90;;;;;;5009279;28;20750;-91
2021/09/24 10:37:34;;;;;;;4.87;3.20;;;17.50;99.90;;;;;;4992565;28;20469;-86
2021/09/24 10:40:24;;;;;;;3.50;2.40;;;17.50;99.90;;;;;;5002387;28;20417;-91
2021/09/24 10:43:01;;;;;;;11.23;3.83;;;17.20;99.90;;;;;;5006560;28;20427;-90
2021/09/24 10:45:40;;;;;;;6.53;3.17;;;17.30;99.90;;;;;;5007055;28;20420;-88
2021/09/24 10:48:16;;;;;;;6.67;4.13;;;17.30;99.90;;;;;;5007321;28;20685;-89
2021/09/24 10:50:45;;;;;;;3.40;2.73;;;17.40;99.90;;;;;;5003971;28;20417;-88
2021/09/24 10:53:18;;;;;;;3.00;2.37;;;17.40;99.90;;;;;;4990376;28;20445;-89
2021/09/24 10:56:08;;;;;;;12.70;5.10;;;17.50;99.90;;;;;;4992379;28;20414;-88
2021/09/24 10:58:38;;;;;;;9.53;3.63;;;17.40;99.90;;;;;;5007849;28;20476;-88
2021/09/24 11:01:12;;;;;;;9.33;2.93;;;17.20;99.90;;;;;;4997546;28;20413;-90
2021/09/24 11:04:11;;;;;;;3.13;2.80;;;17.10;99.90;;;;;;4978895;28;20407;-91
2021/09/24 11:06:47;;;;;;;7.23;3.57;;;17.50;99.90;;;;;;4988632;28;20418;-90
2021/09/24 11:09:21;;;;;;;7.37;3.40;;;17.50;99.90;;;;;;4991446;28;20417;-87
2021/09/24 11:12:03;;;;;;;4.77;3.60;;;17.60;99.90;;;;;;4995708;28;20408;-88
2021/09/24 11:14:33;;;;;;;5.30;2.83;;;17.60;99.90;;;;;;4990068;28;20604;-89
2021/09/24 11:17:03;;;;;;;7.17;2.80;;;17.60;99.90;;;;;;5008600;28;20402;-92
2021/09/24 11:19:38;;;;;;;5.37;3.40;;;17.60;99.90;;;;;;5007622;28;20643;-88
2021/09/24 11:22:15;;;;;;;5.13;2.97;;;17.80;99.90;;;;;;4980124;28;20410;-89
2021/09/24 11:25:02;;;;;;;5.53;3.87;;;18.20;99.90;;;;;;5014051;28;20749;-86
2021/09/24 11:27:34;;;;;;;9.90;4.23;;;18.60;99.90;;;;;;5000938;28;20435;-90
2021/09/24 11:30:04;;;;;;;10.70;4.57;;;18.60;99.90;;;;;;5002706;28;20498;-88
2021/09/24 11:32:44;;;;;;;7.37;3.97;;;18.40;99.90;;;;;;4999336;28;20507;-90
2021/09/24 11:35:19;;;;;;;4.17;3.17;;;18.10;99.90;;;;;;4980986;28;20411;-89
2021/09/24 11:37:47;;;;;;;11.23;3.60;;;18.00;99.90;;;;;;5006481;28;20445;-86
2021/09/24 11:40:26;;;;;;;6.07;2.97;;;17.90;99.90;;;;;;4999777;28;20654;-90
2021/09/24 11:42:57;;;;;;;6.50;3.40;;;17.80;99.90;;;;;;4990624;28;20423;-90
2021/09/24 11:45:29;;;;;;;4.23;3.20;;;17.80;99.90;;;;;;5002511;28;20424;-89
2021/09/24 11:48:09;;;;;;;4.50;3.20;;;17.90;99.90;;;;;;4991796;28;20483;-88
2021/09/24 11:50:38;;;;;;;7.30;3.07;;;18.40;99.90;;;;;;5006728;28;20649;-85
2021/09/24 11:53:09;;;;;;;3.90;3.07;;;18.90;99.90;;;;;;5007083;28;20440;-88
2021/09/24 11:55:38;;;;;;;6.63;3.27;;;19.10;99.90;;;;;;5007065;28;20435;-89
2021/09/24 11:58:05;;;;;;;6.20;3.73;;;19.00;99.90;;;;;;4988689;28;20459;-86
2021/09/24 12:00:40;;;;;;;7.80;3.27;;;18.70;99.90;;;;;;5006763;28;20461;-86
2021/09/24 12:03:15;;;;;;;7.53;3.57;;;18.70;99.90;;;;;;4993323;28;20405;-87
2021/09/24 12:06:04;;;;;;;3.47;3.17;;;18.80;99.90;;;;;;4990857;28;20427;-88
2021/09/24 12:08:45;;;;;;;8.40;5.70;;;18.80;99.90;;;;;;5012123;28;20421;-87
2021/09/24 12:11:25;;;;;;;4.07;3.77;;;18.90;99.90;;;;;;5007185;28;20452;-88
2021/09/24 12:13:58;;;;;;;3.73;3.40;;;18.80;99.90;;;;;;4995842;28;20406;-89
2021/09/24 12:16:33;;;;;;;4.20;3.60;;;18.80;99.90;;;;;;4998209;28;20579;-91
2021/09/24 12:19:09;;;;;;;11.00;3.90;;;18.70;99.90;;;;;;5005318;28;20465;-88
2021/09/24 12:21:58;;;;;;;7.23;3.73;;;18.30;99.90;;;;;;4989424;28;20550;-90
2021/09/24 12:24:33;;;;;;;4.40;4.00;;;18.20;99.90;;;;;;4988479;28;20444;-90
2021/09/24 12:27:13;;;;;;;6.37;3.77;;;18.10;99.90;;;;;;5006016;28;20432;-92
2021/09/24 12:29:42;;;;;;;6.60;4.23;;;18.10;99.90;;;;;;4989303;28;20418;-89
2021/09/24 12:32:15;;;;;;;5.03;3.83;;;18.10;99.90;;;;;;5005366;28;20414;-88
2021/09/24 12:34:50;;;;;;;9.40;4.20;;;18.20;99.90;;;;;;5005675;28;20452;-87
2021/09/24 12:37:20;;;;;;;4.80;3.53;;;18.10;99.90;;;;;;4999229;28;20413;-90
2021/09/24 12:39:56;;;;;;;4.47;4.17;;;18.00;99.90;;;;;;4986443;28;20419;-89
2021/09/24 12:42:33;;;;;;;5.13;3.73;;;17.90;99.90;;;;;;5005081;28;20450;-92
2021/09/24 12:45:06;;;;;;;3.40;3.10;;;17.70;99.90;;;;;;4990470;28;20471;-90
2021/09/24 12:47:34;;;;;;;6.27;4.07;;;17.80;99.90;;;;;;4989586;28;20417;-91
2021/09/24 12:50:05;;;;;;;5.00;3.53;;;17.90;99.90;;;;;;5006766;28;20440;-88
2021/09/24 12:52:34;;;;;;;3.77;3.57;;;17.90;99.90;;;;;;4975356;28;20425;-88
2021/09/24 12:55:05;;;;;;;4.40;4.00;;;18.00;99.90;;;;;;5003046;28;20448;-88
2021/09/24 12:57:33;;;;;;;6.13;4.07;;;18.20;99.90;;;;;;5005547;28;20413;-89
2021/09/24 13:00:08;;;;;;;7.93;3.93;;;18.50;99.90;;;;;;4991297;28;20488;-90